sensor_id;sensor_type;location;lat;lon;timestamp;pressure;altitude;pressure_sealevel;temperature;humidity
70745;BME280;59284;31.390;34.904;2023-01-28T00:00:08;94711.28;;;21.82;100.00
70745;BME280;59284;31.390;34.904;2023-01-28T00:02:35;94694.78;;;21.58;100.00
70745;BME280;59284;31.390;34.904;2023-01-28T00:05:01;94713.47;;;21.17;100.00
70745;BME280;59284;31.390;34.904;2023-01-28T00:07:30;94724.72;;;21.14;100.00
70745;BME280;59284;31.390;34.904;2023-01-28T00:09:56;94714.25;;;21.17;100.00
70745;BME280;59284;31.390;34.904;2023-01-28T00:12:21;94715.41;;;21.49;100.00
70745;BME280;59284;31.390;34.904;2023-01-28T00:14:48;94706.91;;;21.33;100.00
70745;BME280;59284;31.390;34.904;2023-01-28T00:17:13;94698.16;;;21.26;100.00
70745;BME280;59284;31.390;34.904;2023-01-28T00:19:40;94708.53;;;21.75;100.00
70745;BME280;59284;31.390;34.904;2023-01-28T00:22:05;94683.75;;;21.49;100.00
70745;BME280;59284;31.390;34.904;2023-01-28T00:24:31;94679.22;;;21.50;100.00
70745;BME280;59284;31.390;34.904;2023-01-28T00:26:59;94673.69;;;21.92;100.00
70745;BME280;59284;31.390;34.904;2023-01-28T00:29:26;94679.09;;;21.73;100.00
70745;BME280;59284;31.390;34.904;2023-01-28T00:31:54;94705.75;;;21.60;100.00
70745;BME280;59284;31.390;34.904;2023-01-28T00:34:20;94731.47;;;21.37;100.00
70745;BME280;59284;31.390;34.904;2023-01-28T00:36:46;94737.28;;;21.80;100.00
70745;BME280;59284;31.390;34.904;2023-01-28T00:39:22;94738.03;;;21.21;100.00
70745;BME280;59284;31.390;34.904;2023-01-28T00:41:48;94745.31;;;21.57;100.00
70745;BME280;59284;31.390;34.904;2023-01-28T00:44:13;94761.63;;;21.10;100.00
70745;BME280;59284;31.390;34.904;2023-01-28T00:46:39;94745.84;;;21.14;100.00
70745;BME280;59284;31.390;34.904;2023-01-28T00:49:06;94742.22;;;21.25;100.00
70745;BME280;59284;31.390;34.904;2023-01-28T00:51:33;94727.03;;;21.15;100.00
70745;BME280;59284;31.390;34.904;2023-01-28T00:53:59;94726.59;;;21.39;100.00
70745;BME280;59284;31.390;34.904;2023-01-28T00:56:25;94706.75;;;21.23;100.00
70745;BME280;59284;31.390;34.904;2023-01-28T00:58:50;94720.00;;;21.52;100.00
70745;BME280;59284;31.390;34.904;2023-01-28T01:01:22;94720.78;;;21.27;100.00
70745;BME280;59284;31.390;34.904;2023-01-28T01:03:49;94731.50;;;20.88;100.00
70745;BME280;59284;31.390;34.904;2023-01-28T01:06:23;94726.66;;;21.43;100.00
70745;BME280;59284;31.390;34.904;2023-01-28T01:08:50;94724.94;;;21.28;100.00
70745;BME280;59284;31.390;34.904;2023-01-28T01:11:17;94731.41;;;21.04;100.00
70745;BME280;59284;31.390;34.904;2023-01-28T01:13:43;94729.97;;;21.10;100.00
70745;BME280;59284;31.390;34.904;2023-01-28T01:16:14;94730.13;;;21.50;100.00
70745;BME280;59284;31.390;34.904;2023-01-28T01:18:41;94713.09;;;21.44;100.00
70745;BME280;59284;31.390;34.904;2023-01-28T01:21:15;94696.88;;;21.46;100.00
70745;BME280;59284;31.390;34.904;2023-01-28T01:23:45;94695.06;;;20.94;100.00
70745;BME280;59284;31.390;34.904;2023-01-28T01:26:14;94696.16;;;21.45;100.00
70745;BME280;59284;31.390;34.904;2023-01-28T01:28:40;94697.28;;;20.92;100.00
70745;BME280;59284;31.390;34.904;2023-01-28T01:31:17;94714.34;;;21.24;100.00
70745;BME280;59284;31.390;34.904;2023-01-28T01:33:45;94699.13;;;21.14;100.00
70745;BME280;59284;31.390;34.904;2023-01-28T01:36:13;94703.00;;;21.20;100.00
70745;BME280;59284;31.390;34.904;2023-01-28T01:38:39;94673.13;;;21.16;100.00
70745;BME280;59284;31.390;34.904;2023-01-28T01:41:06;94655.44;;;21.17;100.00
70745;BME280;59284;31.390;34.904;2023-01-28T01:43:51;94679.03;;;20.80;100.00
70745;BME280;59284;31.390;34.904;2023-01-28T01:46:25;94706.97;;;20.84;100.00
70745;BME280;59284;31.390;34.904;2023-01-28T01:48:55;94676.16;;;21.15;100.00
70745;BME280;59284;31.390;34.904;2023-01-28T01:51:26;94662.69;;;21.23;100.00
70745;BME280;59284;31.390;34.904;2023-01-28T01:53:55;94673.88;;;21.43;100.00
70745;BME280;59284;31.390;34.904;2023-01-28T01:56:27;94685.09;;;21.36;100.00
70745;BME280;59284;31.390;34.904;2023-01-28T01:58:55;94677.13;;;21.33;100.00
70745;BME280;59284;31.390;34.904;2023-01-28T02:01:25;94686.91;;;21.32;100.00
70745;BME280;59284;31.390;34.904;2023-01-28T02:06:39;94698.44;;;21.50;100.00
70745;BME280;59284;31.390;34.904;2023-01-28T02:09:24;94694.28;;;21.83;100.00
70745;BME280;59284;31.390;34.904;2023-01-28T02:11:53;94679.97;;;21.50;100.00
70745;BME280;59284;31.390;34.904;2023-01-28T02:14:20;94663.63;;;21.38;100.00
70745;BME280;59284;31.390;34.904;2023-01-28T02:16:47;94670.41;;;21.09;100.00
70745;BME280;59284;31.390;34.904;2023-01-28T02:19:16;94670.41;;;21.39;100.00
70745;BME280;59284;31.390;34.904;2023-01-28T02:24:42;94667.56;;;20.95;100.00
70745;BME280;59284;31.390;34.904;2023-01-28T02:30:50;94678.97;;;21.62;100.00
70745;BME280;59284;31.390;34.904;2023-01-28T02:33:13;94674.69;;;21.50;100.00
70745;BME280;59284;31.390;34.904;2023-01-28T02:35:52;94673.81;;;21.39;100.00
70745;BME280;59284;31.390;34.904;2023-01-28T02:38:27;94680.03;;;21.54;100.00
70745;BME280;59284;31.390;34.904;2023-01-28T02:41:01;94672.41;;;21.49;100.00
70745;BME280;59284;31.390;34.904;2023-01-28T02:43:37;94681.69;;;21.06;100.00
70745;BME280;59284;31.390;34.904;2023-01-28T02:46:31;94686.75;;;21.48;100.00
70745;BME280;59284;31.390;34.904;2023-01-28T02:49:30;94680.03;;;21.54;100.00
70745;BME280;59284;31.390;34.904;2023-01-28T02:52:07;94677.47;;;21.02;100.00
70745;BME280;59284;31.390;34.904;2023-01-28T02:55:05;94681.28;;;21.04;100.00
70745;BME280;59284;31.390;34.904;2023-01-28T03:00:44;94664.44;;;21.12;100.00
70745;BME280;59284;31.390;34.904;2023-01-28T03:03:58;94693.34;;;21.64;100.00
70745;BME280;59284;31.390;34.904;2023-01-28T03:06:27;94699.78;;;21.08;100.00
70745;BME280;59284;31.390;34.904;2023-01-28T03:08:58;94709.41;;;20.96;100.00
70745;BME280;59284;31.390;34.904;2023-01-28T03:12:16;94712.56;;;21.32;100.00
70745;BME280;59284;31.390;34.904;2023-01-28T03:15:09;94712.44;;;20.98;100.00
70745;BME280;59284;31.390;34.904;2023-01-28T03:21:07;94704.28;;;21.07;100.00
70745;BME280;59284;31.390;34.904;2023-01-28T03:23:58;94696.81;;;20.86;100.00
70745;BME280;59284;31.390;34.904;2023-01-28T03:26:59;94700.66;;;20.66;100.00
70745;BME280;59284;31.390;34.904;2023-01-28T03:29:45;94702.38;;;20.81;100.00
70745;BME280;59284;31.390;34.904;2023-01-28T03:32:31;94699.03;;;20.58;100.00
70745;BME280;59284;31.390;34.904;2023-01-28T03:35:19;94713.19;;;20.73;100.00
70745;BME280;59284;31.390;34.904;2023-01-28T03:38:06;94720.00;;;20.74;100.00
70745;BME280;59284;31.390;34.904;2023-01-28T03:40:56;94710.38;;;20.85;100.00
70745;BME280;59284;31.390;34.904;2023-01-28T03:43:24;94679.22;;;20.42;100.00
70745;BME280;59284;31.390;34.904;2023-01-28T03:45:50;94684.25;;;20.27;100.00
70745;BME280;59284;31.390;34.904;2023-01-28T03:48:19;94694.59;;;20.62;100.00
70745;BME280;59284;31.390;34.904;2023-01-28T03:50:46;94703.16;;;20.56;100.00
70745;BME280;59284;31.390;34.904;2023-01-28T03:53:13;94708.94;;;20.65;100.00
70745;BME280;59284;31.390;34.904;2023-01-28T03:55:40;94723.63;;;20.66;100.00
70745;BME280;59284;31.390;34.904;2023-01-28T03:58:07;94718.38;;;20.92;100.00
70745;BME280;59284;31.390;34.904;2023-01-28T04:00:33;94710.88;;;20.45;100.00
70745;BME280;59284;31.390;34.904;2023-01-28T04:03:05;94691.13;;;20.58;100.00
70745;BME280;59284;31.390;34.904;2023-01-28T04:05:56;94667.00;;;20.82;100.00
70745;BME280;59284;31.390;34.904;2023-01-28T04:08:22;94681.16;;;20.71;100.00
70745;BME280;59284;31.390;34.904;2023-01-28T04:10:49;94719.56;;;20.94;100.00
70745;BME280;59284;31.390;34.904;2023-01-28T04:13:15;94732.78;;;20.98;100.00
70745;BME280;59284;31.390;34.904;2023-01-28T04:15:44;94729.91;;;21.07;100.00
70745;BME280;59284;31.390;34.904;2023-01-28T04:18:11;94726.22;;;21.11;100.00
70745;BME280;59284;31.390;34.904;2023-01-28T04:20:37;94726.88;;;21.05;100.00
70745;BME280;59284;31.390;34.904;2023-01-28T04:23:04;94738.44;;;20.74;100.00
70745;BME280;59284;31.390;34.904;2023-01-28T04:25:31;94742.88;;;21.15;100.00
70745;BME280;59284;31.390;34.904;2023-01-28T04:27:57;94750.84;;;20.96;100.00
70745;BME280;59284;31.390;34.904;2023-01-28T04:30:23;94733.13;;;20.96;100.00
70745;BME280;59284;31.390;34.904;2023-01-28T04:32:48;94737.03;;;20.80;100.00
70745;BME280;59284;31.390;34.904;2023-01-28T04:35:17;94732.25;;;21.12;100.00
70745;BME280;59284;31.390;34.904;2023-01-28T04:37:44;94730.78;;;21.14;100.00
70745;BME280;59284;31.390;34.904;2023-01-28T04:40:11;94725.00;;;21.05;100.00
70745;BME280;59284;31.390;34.904;2023-01-28T04:42:37;94724.25;;;20.82;100.00
70745;BME280;59284;31.390;34.904;2023-01-28T04:45:04;94715.84;;;21.25;100.00
70745;BME280;59284;31.390;34.904;2023-01-28T04:50:10;94670.59;;;21.23;100.00
70745;BME280;59284;31.390;34.904;2023-01-28T04:52:36;94681.13;;;20.67;100.00
70745;BME280;59284;31.390;34.904;2023-01-28T04:55:02;94693.41;;;20.86;100.00
70745;BME280;59284;31.390;34.904;2023-01-28T04:57:28;94708.34;;;21.01;100.00
70745;BME280;59284;31.390;34.904;2023-01-28T04:59:53;94716.41;;;21.12;100.00
70745;BME280;59284;31.390;34.904;2023-01-28T05:02:19;94716.84;;;20.91;100.00
70745;BME280;59284;31.390;34.904;2023-01-28T05:04:45;94717.56;;;20.88;100.00
70745;BME280;59284;31.390;34.904;2023-01-28T05:07:11;94711.56;;;20.91;100.00
70745;BME280;59284;31.390;34.904;2023-01-28T05:09:36;94695.56;;;21.03;100.00
70745;BME280;59284;31.390;34.904;2023-01-28T05:12:02;94705.56;;;21.17;100.00
70745;BME280;59284;31.390;34.904;2023-01-28T05:14:28;94713.34;;;21.06;100.00
70745;BME280;59284;31.390;34.904;2023-01-28T05:16:54;94719.59;;;20.98;100.00
70745;BME280;59284;31.390;34.904;2023-01-28T05:19:20;94735.91;;;21.59;100.00
70745;BME280;59284;31.390;34.904;2023-01-28T05:21:45;94734.69;;;21.24;100.00
70745;BME280;59284;31.390;34.904;2023-01-28T05:24:11;94737.00;;;21.29;100.00
70745;BME280;59284;31.390;34.904;2023-01-28T05:26:37;94730.09;;;21.47;100.00
70745;BME280;59284;31.390;34.904;2023-01-28T05:29:03;94716.34;;;21.64;100.00
70745;BME280;59284;31.390;34.904;2023-01-28T05:31:29;94724.31;;;21.38;100.00
70745;BME280;59284;31.390;34.904;2023-01-28T05:33:54;94729.28;;;21.43;100.00
70745;BME280;59284;31.390;34.904;2023-01-28T05:36:20;94731.38;;;21.60;100.00
70745;BME280;59284;31.390;34.904;2023-01-28T05:38:46;94738.34;;;21.75;100.00
70745;BME280;59284;31.390;34.904;2023-01-28T05:41:11;94753.34;;;21.67;100.00
70745;BME280;59284;31.390;34.904;2023-01-28T05:43:37;94746.19;;;21.68;100.00
70745;BME280;59284;31.390;34.904;2023-01-28T05:46:03;94738.97;;;21.65;100.00
70745;BME280;59284;31.390;34.904;2023-01-28T05:48:29;94760.34;;;22.16;100.00
70745;BME280;59284;31.390;34.904;2023-01-28T05:50:54;94758.53;;;21.60;100.00
70745;BME280;59284;31.390;34.904;2023-01-28T05:53:20;94745.22;;;21.83;100.00
70745;BME280;59284;31.390;34.904;2023-01-28T05:55:50;94751.03;;;21.62;100.00
70745;BME280;59284;31.390;34.904;2023-01-28T05:58:18;94754.19;;;21.75;100.00
70745;BME280;59284;31.390;34.904;2023-01-28T06:00:44;94747.75;;;22.02;100.00
70745;BME280;59284;31.390;34.904;2023-01-28T06:03:10;94750.34;;;21.69;100.00
70745;BME280;59284;31.390;34.904;2023-01-28T06:05:36;94752.19;;;22.31;100.00
70745;BME280;59284;31.390;34.904;2023-01-28T06:08:08;94756.66;;;22.24;100.00
70745;BME280;59284;31.390;34.904;2023-01-28T06:10:45;94774.06;;;22.65;100.00
70745;BME280;59284;31.390;34.904;2023-01-28T06:13:11;94780.16;;;22.73;100.00
70745;BME280;59284;31.390;34.904;2023-01-28T06:15:39;94773.91;;;22.51;100.00
70745;BME280;59284;31.390;34.904;2023-01-28T06:18:05;94776.50;;;22.11;100.00
70745;BME280;59284;31.390;34.904;2023-01-28T06:20:30;94768.56;;;23.35;100.00
70745;BME280;59284;31.390;34.904;2023-01-28T06:22:56;94785.44;;;23.17;100.00
70745;BME280;59284;31.390;34.904;2023-01-28T06:25:22;94793.44;;;23.27;100.00
70745;BME280;59284;31.390;34.904;2023-01-28T06:27:47;94787.84;;;22.85;100.00
70745;BME280;59284;31.390;34.904;2023-01-28T06:30:13;94766.78;;;23.53;100.00
70745;BME280;59284;31.390;34.904;2023-01-28T06:32:39;94773.31;;;23.81;100.00
70745;BME280;59284;31.390;34.904;2023-01-28T06:35:05;94772.00;;;24.18;100.00
70745;BME280;59284;31.390;34.904;2023-01-28T06:37:31;94777.19;;;23.25;100.00
70745;BME280;59284;31.390;34.904;2023-01-28T06:39:56;94780.47;;;22.64;100.00
70745;BME280;59284;31.390;34.904;2023-01-28T06:42:22;94764.56;;;23.69;100.00
70745;BME280;59284;31.390;34.904;2023-01-28T06:44:47;94773.63;;;23.65;100.00
70745;BME280;59284;31.390;34.904;2023-01-28T06:47:13;94771.88;;;23.94;100.00
70745;BME280;59284;31.390;34.904;2023-01-28T06:49:39;94772.09;;;24.61;100.00
70745;BME280;59284;31.390;34.904;2023-01-28T06:52:05;94774.28;;;24.23;100.00
70745;BME280;59284;31.390;34.904;2023-01-28T06:54:31;94777.69;;;24.24;100.00
70745;BME280;59284;31.390;34.904;2023-01-28T06:56:57;94783.47;;;24.82;100.00
70745;BME280;59284;31.390;34.904;2023-01-28T06:59:23;94787.41;;;23.92;100.00
70745;BME280;59284;31.390;34.904;2023-01-28T07:01:50;94784.00;;;24.02;100.00
70745;BME280;59284;31.390;34.904;2023-01-28T07:04:15;94791.03;;;23.59;100.00
70745;BME280;59284;31.390;34.904;2023-01-28T07:06:41;94797.44;;;24.48;100.00
70745;BME280;59284;31.390;34.904;2023-01-28T07:09:07;94801.28;;;24.89;100.00
70745;BME280;59284;31.390;34.904;2023-01-28T07:11:32;94790.31;;;24.80;100.00
70745;BME280;59284;31.390;34.904;2023-01-28T07:13:58;94807.00;;;25.12;100.00
70745;BME280;59284;31.390;34.904;2023-01-28T07:16:24;94821.63;;;23.53;100.00
70745;BME280;59284;31.390;34.904;2023-01-28T07:18:52;94807.97;;;23.51;100.00
70745;BME280;59284;31.390;34.904;2023-01-28T07:21:18;94804.44;;;23.33;100.00
70745;BME280;59284;31.390;34.904;2023-01-28T07:23:44;94817.06;;;24.25;100.00
70745;BME280;59284;31.390;34.904;2023-01-28T07:26:09;94814.09;;;24.37;100.00
70745;BME280;59284;31.390;34.904;2023-01-28T07:28:35;94810.53;;;24.05;100.00
70745;BME280;59284;31.390;34.904;2023-01-28T07:31:00;94819.47;;;23.69;100.00
70745;BME280;59284;31.390;34.904;2023-01-28T07:33:26;94820.56;;;24.58;100.00
70745;BME280;59284;31.390;34.904;2023-01-28T07:35:52;94821.03;;;23.84;100.00
70745;BME280;59284;31.390;34.904;2023-01-28T07:38:18;94813.50;;;23.97;100.00
70745;BME280;59284;31.390;34.904;2023-01-28T07:40:44;94816.34;;;24.39;100.00
70745;BME280;59284;31.390;34.904;2023-01-28T07:43:10;94810.69;;;24.33;100.00
70745;BME280;59284;31.390;34.904;2023-01-28T07:45:35;94806.94;;;24.63;100.00
70745;BME280;59284;31.390;34.904;2023-01-28T07:48:04;94804.72;;;24.96;100.00
70745;BME280;59284;31.390;34.904;2023-01-28T07:50:31;94794.09;;;25.28;100.00
70745;BME280;59284;31.390;34.904;2023-01-28T07:53:03;94788.03;;;24.85;100.00
70745;BME280;59284;31.390;34.904;2023-01-28T07:55:40;94793.34;;;25.03;100.00
70745;BME280;59284;31.390;34.904;2023-01-28T07:58:07;94801.69;;;24.84;100.00
70745;BME280;59284;31.390;34.904;2023-01-28T08:00:35;94797.09;;;25.37;100.00
70745;BME280;59284;31.390;34.904;2023-01-28T08:03:04;94794.84;;;25.43;100.00
70745;BME280;59284;31.390;34.904;2023-01-28T08:05:39;94793.31;;;25.66;100.00
70745;BME280;59284;31.390;34.904;2023-01-28T08:08:07;94791.06;;;25.37;100.00
70745;BME280;59284;31.390;34.904;2023-01-28T08:10:33;94784.97;;;24.69;100.00
70745;BME280;59284;31.390;34.904;2023-01-28T08:13:00;94770.94;;;25.29;100.00
70745;BME280;59284;31.390;34.904;2023-01-28T08:15:27;94775.84;;;25.58;100.00
70745;BME280;59284;31.390;34.904;2023-01-28T08:17:55;94775.81;;;25.76;100.00
70745;BME280;59284;31.390;34.904;2023-01-28T08:20:21;94772.88;;;25.25;100.00
70745;BME280;59284;31.390;34.904;2023-01-28T08:22:48;94774.22;;;26.69;100.00
70745;BME280;59284;31.390;34.904;2023-01-28T08:25:13;94757.41;;;26.82;100.00
70745;BME280;59284;31.390;34.904;2023-01-28T08:27:39;94759.72;;;26.15;100.00
70745;BME280;59284;31.390;34.904;2023-01-28T08:30:05;94758.47;;;26.92;100.00
70745;BME280;59284;31.390;34.904;2023-01-28T08:32:32;94771.22;;;25.84;100.00
70745;BME280;59284;31.390;34.904;2023-01-28T08:34:58;94749.38;;;28.05;100.00
70745;BME280;59284;31.390;34.904;2023-01-28T08:37:24;94753.13;;;28.37;100.00
70745;BME280;59284;31.390;34.904;2023-01-28T08:39:49;94758.88;;;26.90;100.00
70745;BME280;59284;31.390;34.904;2023-01-28T08:42:15;94740.34;;;27.61;100.00
70745;BME280;59284;31.390;34.904;2023-01-28T08:44:41;94754.13;;;26.57;100.00
70745;BME280;59284;31.390;34.904;2023-01-28T08:47:07;94738.78;;;26.82;100.00
70745;BME280;59284;31.390;34.904;2023-01-28T08:49:32;94735.44;;;27.90;99.29
70745;BME280;59284;31.390;34.904;2023-01-28T08:51:58;94717.50;;;29.63;95.31
70745;BME280;59284;31.390;34.904;2023-01-28T08:54:24;94728.53;;;30.24;87.39
70745;BME280;59284;31.390;34.904;2023-01-28T08:56:50;94732.00;;;27.19;100.00
70745;BME280;59284;31.390;34.904;2023-01-28T08:59:16;94730.13;;;28.74;98.62
70745;BME280;59284;31.390;34.904;2023-01-28T09:01:42;94722.41;;;28.79;100.00
70745;BME280;59284;31.390;34.904;2023-01-28T09:04:09;94705.44;;;30.30;86.74
70745;BME280;59284;31.390;34.904;2023-01-28T09:06:40;94731.88;;;29.30;86.45
70745;BME280;59284;31.390;34.904;2023-01-28T09:09:06;94700.94;;;29.92;90.04
70745;BME280;59284;31.390;34.904;2023-01-28T09:11:31;94696.31;;;32.48;86.33
70745;BME280;59284;31.390;34.904;2023-01-28T09:13:59;94702.75;;;28.43;92.91
70745;BME280;59284;31.390;34.904;2023-01-28T09:16:25;94695.81;;;31.30;87.40
70745;BME280;59284;31.390;34.904;2023-01-28T09:18:51;94704.84;;;28.28;92.23
70745;BME280;59284;31.390;34.904;2023-01-28T09:21:18;94692.47;;;31.83;85.02
70745;BME280;59284;31.390;34.904;2023-01-28T09:23:44;94691.66;;;30.32;81.14
70745;BME280;59284;31.390;34.904;2023-01-28T09:26:10;94685.00;;;30.72;83.13
70745;BME280;59284;31.390;34.904;2023-01-28T09:28:36;94706.81;;;32.30;74.25
70745;BME280;59284;31.390;34.904;2023-01-28T09:31:07;94677.34;;;28.85;74.28
70745;BME280;59284;31.390;34.904;2023-01-28T09:33:35;94664.00;;;34.38;69.62
70745;BME280;59284;31.390;34.904;2023-01-28T09:36:09;94659.69;;;30.09;74.08
70745;BME280;59284;31.390;34.904;2023-01-28T09:38:35;94647.50;;;31.74;70.12
70745;BME280;59284;31.390;34.904;2023-01-28T09:41:08;94650.13;;;30.92;65.62
70745;BME280;59284;31.390;34.904;2023-01-28T09:43:58;94668.94;;;29.49;70.15
70745;BME280;59284;31.390;34.904;2023-01-28T09:46:32;94658.84;;;28.47;74.97
70745;BME280;59284;31.390;34.904;2023-01-28T09:49:02;94647.50;;;28.40;72.11
70745;BME280;59284;31.390;34.904;2023-01-28T09:51:56;94637.53;;;32.97;67.80
70745;BME280;59284;31.390;34.904;2023-01-28T09:57:25;94645.22;;;31.03;68.05
70745;BME280;59284;31.390;34.904;2023-01-28T09:59:51;94623.19;;;30.50;67.28
70745;BME280;59284;31.390;34.904;2023-01-28T10:15:56;94604.72;;;29.88;72.00
70745;BME280;59284;31.390;34.904;2023-01-28T10:22:03;94597.91;;;32.54;67.97
70745;BME280;59284;31.390;34.904;2023-01-28T10:24:34;94599.66;;;31.98;70.63
70745;BME280;59284;31.390;34.904;2023-01-28T10:27:16;94594.97;;;29.98;71.98
70745;BME280;59284;31.390;34.904;2023-01-28T10:29:42;94583.00;;;32.41;71.78
70745;BME280;59284;31.390;34.904;2023-01-28T10:32:29;94574.63;;;31.22;66.23
70745;BME280;59284;31.390;34.904;2023-01-28T10:34:56;94571.16;;;33.19;67.33
70745;BME280;59284;31.390;34.904;2023-01-28T10:37:26;94588.78;;;31.89;68.69
70745;BME280;59284;31.390;34.904;2023-01-28T10:39:56;94576.31;;;33.14;66.29
70745;BME280;59284;31.390;34.904;2023-01-28T10:44:59;94570.81;;;32.62;71.10
70745;BME280;59284;31.390;34.904;2023-01-28T10:50:31;94567.97;;;32.99;74.09
70745;BME280;59284;31.390;34.904;2023-01-28T10:53:02;94578.00;;;33.42;80.33
70745;BME280;59284;31.390;34.904;2023-01-28T10:58:03;94583.91;;;32.00;85.90
70745;BME280;59284;31.390;34.904;2023-01-28T11:00:38;94580.78;;;32.74;84.09
70745;BME280;59284;31.390;34.904;2023-01-28T11:03:04;94578.91;;;34.01;79.67
70745;BME280;59284;31.390;34.904;2023-01-28T11:05:30;94593.31;;;32.17;85.28
70745;BME280;59284;31.390;34.904;2023-01-28T11:08:13;94585.22;;;34.07;83.86
70745;BME280;59284;31.390;34.904;2023-01-28T11:10:40;94596.66;;;33.15;99.93
70745;BME280;59284;31.390;34.904;2023-01-28T11:13:18;94595.31;;;32.51;100.00
70745;BME280;59284;31.390;34.904;2023-01-28T11:15:47;94598.84;;;35.34;100.00
70745;BME280;59284;31.390;34.904;2023-01-28T11:18:24;94595.22;;;35.37;100.00
70745;BME280;59284;31.390;34.904;2023-01-28T11:20:53;94593.75;;;35.95;97.88
70745;BME280;59284;31.390;34.904;2023-01-28T11:23:35;94603.22;;;35.04;98.17
70745;BME280;59284;31.390;34.904;2023-01-28T11:26:18;94601.59;;;33.90;99.21
70745;BME280;59284;31.390;34.904;2023-01-28T11:28:48;94606.78;;;34.83;98.22
70745;BME280;59284;31.390;34.904;2023-01-28T11:31:16;94617.75;;;35.34;98.43
70745;BME280;59284;31.390;34.904;2023-01-28T11:36:18;94614.09;;;34.64;100.00
70745;BME280;59284;31.390;34.904;2023-01-28T11:38:54;94608.44;;;35.35;100.00
70745;BME280;59284;31.390;34.904;2023-01-28T11:41:37;94609.47;;;34.65;99.80
70745;BME280;59284;31.390;34.904;2023-01-28T11:44:15;94616.78;;;33.10;100.00
70745;BME280;59284;31.390;34.904;2023-01-28T11:46:54;94619.28;;;34.01;100.00
70745;BME280;59284;31.390;34.904;2023-01-28T11:52:09;94613.53;;;33.37;100.00
70745;BME280;59284;31.390;34.904;2023-01-28T12:00:34;94620.78;;;34.41;100.00
70745;BME280;59284;31.390;34.904;2023-01-28T12:06:21;94631.19;;;34.88;100.00
70745;BME280;59284;31.390;34.904;2023-01-28T12:17:48;94609.72;;;33.25;94.76
70745;BME280;59284;31.390;34.904;2023-01-28T12:21:24;94616.34;;;33.12;99.29
70745;BME280;59284;31.390;34.904;2023-01-28T12:23:53;94617.03;;;33.47;100.00
70745;BME280;59284;31.390;34.904;2023-01-28T12:34:32;94621.34;;;34.36;98.98
70745;BME280;59284;31.390;34.904;2023-01-28T12:37:15;94633.03;;;32.35;100.00
70745;BME280;59284;31.390;34.904;2023-01-28T12:42:36;94615.34;;;33.18;100.00
70745;BME280;59284;31.390;34.904;2023-01-28T12:45:30;94635.75;;;32.22;100.00
70745;BME280;59284;31.390;34.904;2023-01-28T12:48:02;94639.97;;;31.41;100.00
70745;BME280;59284;31.390;34.904;2023-01-28T12:50:47;94643.34;;;30.55;100.00
70745;BME280;59284;31.390;34.904;2023-01-28T12:53:22;94636.63;;;30.31;100.00
70745;BME280;59284;31.390;34.904;2023-01-28T12:58:44;94650.47;;;31.06;100.00
70745;BME280;59284;31.390;34.904;2023-01-28T13:01:15;94654.38;;;29.89;100.00
70745;BME280;59284;31.390;34.904;2023-01-28T13:07:13;94656.28;;;29.88;100.00
70745;BME280;59284;31.390;34.904;2023-01-28T13:09:47;94662.25;;;29.57;100.00
70745;BME280;59284;31.390;34.904;2023-01-28T13:12:15;94673.38;;;29.12;100.00
70745;BME280;59284;31.390;34.904;2023-01-28T13:14:42;94675.50;;;28.28;100.00
70745;BME280;59284;31.390;34.904;2023-01-28T13:17:12;94672.22;;;30.28;100.00
70745;BME280;59284;31.390;34.904;2023-01-28T13:19:48;94682.09;;;28.47;100.00
70745;BME280;59284;31.390;34.904;2023-01-28T13:22:34;94679.25;;;27.03;100.00
70745;BME280;59284;31.390;34.904;2023-01-28T13:25:33;94678.59;;;26.95;100.00
70745;BME280;59284;31.390;34.904;2023-01-28T13:28:26;94685.97;;;26.22;100.00
70745;BME280;59284;31.390;34.904;2023-01-28T13:31:00;94677.69;;;26.06;100.00
70745;BME280;59284;31.390;34.904;2023-01-28T13:33:33;94675.72;;;27.84;100.00
70745;BME280;59284;31.390;34.904;2023-01-28T13:36:27;94671.94;;;28.38;100.00
70745;BME280;59284;31.390;34.904;2023-01-28T13:39:13;94678.09;;;27.45;100.00
70745;BME280;59284;31.390;34.904;2023-01-28T13:41:51;94678.97;;;27.31;100.00
70745;BME280;59284;31.390;34.904;2023-01-28T13:44:20;94685.22;;;25.28;100.00
70745;BME280;59284;31.390;34.904;2023-01-28T13:46:46;94689.94;;;25.93;100.00
70745;BME280;59284;31.390;34.904;2023-01-28T13:49:15;94691.09;;;25.92;100.00
70745;BME280;59284;31.390;34.904;2023-01-28T14:01:19;94713.47;;;25.91;100.00
70745;BME280;59284;31.390;34.904;2023-01-28T14:09:23;94728.03;;;24.07;100.00
70745;BME280;59284;31.390;34.904;2023-01-28T14:20:26;94726.63;;;25.04;100.00
70745;BME280;59284;31.390;34.904;2023-01-28T14:23:01;94740.91;;;24.15;100.00
70745;BME280;59284;31.390;34.904;2023-01-28T14:25:57;94742.91;;;23.46;100.00
70745;BME280;59284;31.390;34.904;2023-01-28T14:28:59;94740.91;;;24.15;100.00
70745;BME280;59284;31.390;34.904;2023-01-28T14:31:37;94749.03;;;22.99;100.00
70745;BME280;59284;31.390;34.904;2023-01-28T14:34:25;94752.28;;;22.82;100.00
70745;BME280;59284;31.390;34.904;2023-01-28T14:36:56;94748.97;;;22.92;100.00
70745;BME280;59284;31.390;34.904;2023-01-28T14:39:27;94758.00;;;22.48;100.00
70745;BME280;59284;31.390;34.904;2023-01-28T14:41:56;94761.41;;;22.48;100.00
70745;BME280;59284;31.390;34.904;2023-01-28T14:44:35;94758.84;;;23.02;100.00
70745;BME280;59284;31.390;34.904;2023-01-28T14:55:22;94766.97;;;22.36;100.00
70745;BME280;59284;31.390;34.904;2023-01-28T14:58:02;94778.50;;;21.88;100.00
70745;BME280;59284;31.390;34.904;2023-01-28T15:00:32;94784.63;;;21.65;100.00